createdAt,value
2018-10-11T00:00:02.905Z,11.25
2018-10-11T00:00:34.006Z,11.24
2018-10-11T00:01:06.380Z,11.24
2018-10-11T00:01:37.481Z,11.25
2018-10-11T00:02:08.618Z,11.25
2018-10-11T00:02:39.741Z,11.24
2018-10-11T00:03:11.473Z,11.25
2018-10-11T00:03:42.616Z,11.26
2018-10-11T00:04:15.817Z,11.25
2018-10-11T00:04:47.290Z,11.26
2018-10-11T00:05:20.104Z,11.23
2018-10-11T00:05:51.234Z,11.21
2018-10-11T00:06:22.419Z,11.18
2018-10-11T00:06:54.282Z,11.10
2018-10-11T00:07:25.477Z,11.04
2018-10-11T00:07:58.702Z,11.01
2018-10-11T00:08:30.501Z,10.94
2018-10-11T00:09:02.331Z,10.92
2018-10-11T00:09:33.581Z,10.90
2018-10-11T00:10:06.773Z,10.88
2018-10-11T00:10:38.928Z,10.83
2018-10-11T00:11:10.892Z,10.82
2018-10-11T00:11:42.025Z,10.80
2018-10-11T00:12:13.815Z,10.77
2018-10-11T00:12:44.922Z,10.75
2018-10-11T00:13:16.256Z,10.74
2018-10-11T00:13:47.511Z,10.75
2018-10-11T00:14:18.656Z,10.74
2018-10-11T00:14:49.890Z,10.72
2018-10-11T00:15:21.086Z,10.70
2018-10-11T00:15:52.370Z,10.69
2018-10-11T00:16:23.539Z,10.69
2018-10-11T00:16:54.679Z,10.69
2018-10-11T00:17:25.820Z,10.71
2018-10-11T00:17:57.048Z,10.73
2018-10-11T00:18:28.215Z,10.71
2018-10-11T00:18:59.398Z,10.69
2018-10-11T00:19:31.099Z,10.70
2018-10-11T00:20:02.282Z,10.70
2018-10-11T00:20:33.348Z,10.68
2018-10-11T00:21:05.501Z,10.69
2018-10-11T00:21:37.353Z,10.69
2018-10-11T00:22:08.455Z,10.70
2018-10-11T00:22:39.555Z,10.70
2018-10-11T00:23:11.190Z,10.67
2018-10-11T00:23:42.336Z,10.70
2018-10-11T00:24:14.525Z,10.70
2018-10-11T00:24:46.310Z,10.70
2018-10-11T00:25:17.496Z,10.71
2018-10-11T00:25:48.622Z,10.72
2018-10-11T00:26:19.772Z,10.70
2018-10-11T00:26:51.506Z,10.70
2018-10-11T00:27:23.185Z,10.69
2018-10-11T00:27:54.508Z,10.66
2018-10-11T00:28:25.643Z,10.65
2018-10-11T00:28:57.763Z,10.62
2018-10-11T00:30:06.396Z,10.59
2018-10-11T00:30:37.733Z,10.59
2018-10-11T00:31:09.764Z,10.58
2018-10-11T00:31:41.555Z,10.57
2018-10-11T00:32:12.779Z,10.58
2018-10-11T00:32:43.970Z,10.59
2018-10-11T00:33:16.792Z,10.59
2018-10-11T00:33:47.895Z,10.59
2018-10-11T00:34:19.097Z,10.59
2018-10-11T00:34:50.250Z,10.60
2018-10-11T00:35:24.295Z,10.61
2018-10-11T00:35:55.463Z,10.62
2018-10-11T00:36:26.990Z,10.61
2018-10-11T00:36:58.107Z,10.63
2018-10-11T00:37:30.893Z,10.63
2018-10-11T00:38:03.244Z,10.62
2018-10-11T00:38:34.370Z,10.65
2018-10-11T00:39:06.373Z,10.66
2018-10-11T00:39:37.515Z,10.66
2018-10-11T00:40:09.345Z,10.67
2018-10-11T00:40:40.597Z,10.67
2018-10-11T00:41:12.279Z,10.69
2018-10-11T00:41:45.276Z,10.69
2018-10-11T00:42:16.408Z,10.69
2018-10-11T00:42:47.539Z,10.69
2018-10-11T00:43:18.673Z,10.69
2018-10-11T00:43:50.358Z,10.69
2018-10-11T00:44:22.428Z,10.69
2018-10-11T00:44:53.521Z,10.68
2018-10-11T00:45:24.858Z,10.69
2018-10-11T00:45:57.386Z,10.66
2018-10-11T00:46:30.046Z,10.65
2018-10-11T00:47:01.971Z,10.65
2018-10-11T00:47:33.151Z,10.68
2018-10-11T00:48:04.273Z,10.67
2018-10-11T00:48:36.586Z,10.67
2018-10-11T00:49:09.351Z,10.65
2018-10-11T00:49:40.898Z,10.62
2018-10-11T00:50:12.130Z,10.59
2018-10-11T00:50:43.235Z,10.59
2018-10-11T00:51:14.357Z,10.56
2018-10-11T00:51:45.545Z,10.52
2018-10-11T00:52:16.689Z,10.48
2018-10-11T00:52:47.866Z,10.46
2018-10-11T00:53:19.939Z,10.45
2018-10-11T00:53:51.073Z,10.44
2018-10-11T00:54:22.215Z,10.42
2018-10-11T00:54:53.322Z,10.43
2018-10-11T00:55:25.070Z,10.42
2018-10-11T00:55:56.930Z,10.41
2018-10-11T00:56:28.136Z,10.37
2018-10-11T00:56:59.276Z,10.34
2018-10-11T00:57:34.130Z,10.31
2018-10-11T00:58:05.288Z,10.32
2018-10-11T00:58:37.026Z,10.33
2018-10-11T00:59:08.408Z,10.34
2018-10-11T00:59:40.126Z,10.31
2018-10-11T01:00:11.895Z,10.32
2018-10-11T01:00:43.768Z,10.35
2018-10-11T01:01:14.975Z,10.37
2018-10-11T01:01:46.185Z,10.38
2018-10-11T01:02:17.334Z,10.36
2018-10-11T01:02:48.554Z,10.36
2018-10-11T01:03:19.722Z,10.36
2018-10-11T01:03:50.874Z,10.37
2018-10-11T01:04:21.986Z,10.36
2018-10-11T01:04:53.688Z,10.38
2018-10-11T01:05:24.785Z,10.37
2018-10-11T01:05:55.941Z,10.36
2018-10-11T01:06:27.096Z,10.34
2018-10-11T01:06:58.251Z,10.31
2018-10-11T01:07:29.965Z,10.27
2018-10-11T01:08:01.313Z,10.27
2018-10-11T01:08:33.483Z,10.22
2018-10-11T01:09:04.622Z,10.19
2018-10-11T01:09:35.899Z,10.14
2018-10-11T01:10:07.129Z,10.12
2018-10-11T01:10:38.291Z,10.09
2018-10-11T01:11:09.488Z,10.09
2018-10-11T01:11:40.623Z,10.07
2018-10-11T01:12:12.320Z,10.06
2018-10-11T01:12:43.507Z,10.08
2018-10-11T01:13:14.625Z,10.07
2018-10-11T01:13:45.785Z,10.08
2018-10-11T01:14:16.969Z,10.08
2018-10-11T01:14:48.126Z,10.07
2018-10-11T01:15:19.274Z,10.08
2018-10-11T01:15:50.534Z,10.10
2018-10-11T01:16:23.361Z,10.10
2018-10-11T01:16:55.382Z,10.10
2018-10-11T01:17:26.511Z,10.11
2018-10-11T01:17:59.237Z,10.11
2018-10-11T01:18:30.712Z,10.10
2018-10-11T01:19:02.819Z,10.10
2018-10-11T01:19:33.977Z,10.09
2018-10-11T01:20:05.079Z,10.07
2018-10-11T01:20:36.233Z,10.05
2018-10-11T01:21:07.377Z,10.05
2018-10-11T01:21:38.548Z,10.05
2018-10-11T01:22:10.648Z,10.04
2018-10-11T01:22:41.777Z,10.04
2018-10-11T01:23:12.961Z,10.02
2018-10-11T01:23:44.691Z,10.01
2018-10-11T01:24:16.092Z,9.98
2018-10-11T01:24:47.258Z,9.96
2018-10-11T01:25:20.429Z,9.95
2018-10-11T01:25:51.612Z,9.95
2018-10-11T01:26:22.740Z,9.94
2018-10-11T01:26:53.861Z,9.92
2018-10-11T01:27:25.920Z,9.92
2018-10-11T01:27:57.093Z,9.89
2018-10-11T01:28:28.198Z,9.89
2018-10-11T01:28:59.408Z,9.89
2018-10-11T01:29:31.756Z,9.87
2018-10-11T01:30:02.927Z,9.85
2018-10-11T01:30:34.349Z,9.85
2018-10-11T01:31:05.499Z,9.85
2018-10-11T01:31:36.676Z,9.87
2018-10-11T01:32:07.853Z,9.89
2018-10-11T01:32:39.793Z,9.92
2018-10-11T01:33:12.640Z,9.95
2018-10-11T01:33:44.401Z,9.99
2018-10-11T01:34:15.503Z,10.05
2018-10-11T01:34:48.643Z,10.09
2018-10-11T01:35:20.625Z,10.16
2018-10-11T01:35:51.747Z,10.24
2018-10-11T01:36:22.902Z,10.24
2018-10-11T01:36:54.236Z,10.27
2018-10-11T01:37:25.390Z,10.28
2018-10-11T01:37:56.537Z,10.29
2018-10-11T01:38:29.303Z,10.29
2018-10-11T01:39:00.426Z,10.27
2018-10-11T01:39:31.581Z,10.27
2018-10-11T01:40:03.282Z,10.24
2018-10-11T01:40:36.894Z,10.24
2018-10-11T01:41:08.599Z,10.25
2018-10-11T01:41:39.760Z,10.27
2018-10-11T01:42:10.967Z,10.28
2018-10-11T01:42:42.720Z,10.28
2018-10-11T01:43:13.833Z,10.31
2018-10-11T01:43:45.219Z,10.30
2018-10-11T01:44:17.049Z,10.28
2018-10-11T01:44:48.965Z,10.31
2018-10-11T01:45:20.100Z,10.36
2018-10-11T01:45:51.208Z,10.37
2018-10-11T01:46:22.982Z,10.38
2018-10-11T01:46:54.915Z,10.40
2018-10-11T01:47:26.967Z,10.41
2018-10-11T01:47:58.654Z,10.42
2018-10-11T01:48:29.759Z,10.40
2018-10-11T01:49:01.542Z,10.40
2018-10-11T01:49:32.701Z,10.20
2018-10-11T01:50:03.844Z,10.34
2018-10-11T01:50:35.675Z,10.34
2018-10-11T01:51:06.853Z,10.34
2018-10-11T01:51:38.956Z,10.36
2018-10-11T01:52:10.688Z,10.34
2018-10-11T01:52:41.790Z,10.37
2018-10-11T01:53:12.933Z,10.39
2018-10-11T01:53:44.102Z,10.37
2018-10-11T01:54:15.222Z,10.37
2018-10-11T01:54:46.381Z,10.35
2018-10-11T01:55:17.525Z,10.34
2018-10-11T01:55:48.686Z,10.32
2018-10-11T01:56:19.812Z,10.32
2018-10-11T01:56:51.212Z,10.33
2018-10-11T01:57:22.141Z,10.31
2018-10-11T01:57:53.291Z,10.28
2018-10-11T01:58:24.438Z,10.25
2018-10-11T01:58:55.586Z,10.26
2018-10-11T01:59:26.719Z,10.25
2018-10-11T01:59:57.827Z,10.25
2018-10-11T02:00:28.986Z,10.26
2018-10-11T02:01:00.185Z,10.25
2018-10-11T02:01:31.335Z,10.26
2018-10-11T02:02:02.463Z,10.27
2018-10-11T02:02:33.606Z,10.27
2018-10-11T02:03:04.747Z,10.27
2018-10-11T02:03:35.865Z,10.27
2018-10-11T02:04:06.969Z,10.27
2018-10-11T02:04:38.096Z,10.22
2018-10-11T02:05:09.225Z,10.24
2018-10-11T02:05:40.333Z,10.24
2018-10-11T02:06:11.478Z,10.23
2018-10-11T02:06:42.678Z,10.22
2018-10-11T02:07:13.851Z,10.19
2018-10-11T02:07:44.969Z,10.15
2018-10-11T02:08:16.069Z,10.11
2018-10-11T02:08:47.944Z,10.07
2018-10-11T02:09:19.220Z,10.05
2018-10-11T02:09:50.400Z,10.05
2018-10-11T02:10:21.506Z,10.04
2018-10-11T02:10:52.664Z,10.03
2018-10-11T02:11:23.834Z,9.98
2018-10-11T02:11:54.943Z,9.96
2018-10-11T02:12:26.051Z,9.91
2018-10-11T02:12:58.187Z,9.90
2018-10-11T02:13:29.358Z,9.90
2018-10-11T02:14:01.119Z,9.60
2018-10-11T02:14:32.249Z,9.86
2018-10-11T02:15:03.365Z,9.87
2018-10-11T02:15:34.503Z,9.85
2018-10-11T02:16:07.088Z,9.86
2018-10-11T02:16:38.186Z,9.81
2018-10-11T02:17:09.421Z,9.77
2018-10-11T02:17:40.539Z,9.74
2018-10-11T02:18:11.693Z,9.76
2018-10-11T02:18:42.833Z,9.79
2018-10-11T02:19:13.944Z,9.78
2018-10-11T02:19:45.045Z,9.77
2018-10-11T02:20:16.157Z,9.76
2018-10-11T02:20:47.304Z,9.78
2018-10-11T02:21:18.449Z,9.77
2018-10-11T02:21:49.583Z,9.78
2018-10-11T02:22:20.696Z,9.79
2018-10-11T02:22:51.845Z,9.79
2018-10-11T02:23:22.950Z,9.79
2018-10-11T02:23:54.136Z,9.76
2018-10-11T02:24:25.327Z,9.74
2018-10-11T02:24:56.470Z,9.73
2018-10-11T02:25:27.576Z,9.73
2018-10-11T02:25:58.687Z,9.72
2018-10-11T02:26:29.851Z,9.70
2018-10-11T02:27:01.526Z,9.70
2018-10-11T02:27:32.700Z,9.67
2018-10-11T02:28:03.818Z,9.66
2018-10-11T02:28:34.973Z,9.64
2018-10-11T02:29:06.076Z,9.61
2018-10-11T02:29:37.190Z,9.62
2018-10-11T02:30:08.301Z,9.62
2018-10-11T02:30:39.430Z,9.62
2018-10-11T02:31:10.559Z,9.61
2018-10-11T02:31:41.670Z,9.57
2018-10-11T02:32:12.847Z,9.55
2018-10-11T02:32:43.900Z,9.54
2018-10-11T02:33:15.020Z,9.51
2018-10-11T02:33:46.175Z,9.48
2018-10-11T02:34:17.291Z,9.48
2018-10-11T02:34:48.458Z,9.46
2018-10-11T02:35:19.568Z,9.45
2018-10-11T02:35:50.665Z,9.43
2018-10-11T02:36:21.783Z,9.38
2018-10-11T02:36:52.889Z,9.36
2018-10-11T02:37:24.010Z,9.35
2018-10-11T02:37:55.149Z,9.33
2018-10-11T02:38:26.295Z,9.32
2018-10-11T02:38:57.457Z,9.35
2018-10-11T02:39:29.524Z,9.33
2018-10-11T02:40:00.627Z,9.33
2018-10-11T02:40:31.789Z,9.33
2018-10-11T02:41:03.079Z,9.35
2018-10-11T02:41:34.221Z,9.36
2018-10-11T02:42:05.352Z,9.38
2018-10-11T02:42:36.513Z,9.36
2018-10-11T02:43:09.470Z,9.35
2018-10-11T02:43:40.629Z,9.32
2018-10-11T02:44:11.732Z,9.32
2018-10-11T02:44:42.860Z,9.31
2018-10-11T02:45:13.985Z,9.32
2018-10-11T02:45:45.111Z,9.32
2018-10-11T02:46:16.237Z,9.33
2018-10-11T02:46:47.375Z,9.34
2018-10-11T02:47:18.494Z,9.34
2018-10-11T02:47:49.650Z,9.35
2018-10-11T02:48:20.851Z,9.19
2018-10-11T02:48:52.026Z,9.36
2018-10-11T02:49:23.145Z,9.36
2018-10-11T02:49:54.253Z,9.37
2018-10-11T02:50:25.377Z,9.36
2018-10-11T02:50:56.504Z,9.35
2018-10-11T02:51:27.602Z,9.35
2018-10-11T02:51:58.709Z,9.34
2018-10-11T02:52:30.219Z,9.34
2018-10-11T02:53:02.463Z,9.35
2018-10-11T02:53:34.587Z,9.35
2018-10-11T02:54:05.776Z,9.34
2018-10-11T02:54:36.877Z,9.35
2018-10-11T02:55:08.066Z,9.34
2018-10-11T02:55:39.230Z,9.33
2018-10-11T02:56:10.347Z,9.34
2018-10-11T02:56:41.509Z,9.33
2018-10-11T02:57:12.667Z,9.34
2018-10-11T02:57:43.805Z,9.34
2018-10-11T02:58:14.956Z,9.33
2018-10-11T02:58:46.135Z,9.34
2018-10-11T02:59:17.261Z,9.33
2018-10-11T02:59:48.363Z,9.33
2018-10-11T03:00:19.500Z,9.31
2018-10-11T03:00:50.629Z,9.30
2018-10-11T03:01:21.777Z,9.30
2018-10-11T03:01:52.878Z,9.30
2018-10-11T03:02:24.013Z,9.29
2018-10-11T03:02:55.166Z,9.29
2018-10-11T03:03:26.305Z,9.30
2018-10-11T03:03:57.432Z,9.29
2018-10-11T03:04:28.599Z,9.30
2018-10-11T03:04:59.726Z,9.29
2018-10-11T03:05:30.826Z,9.29
2018-10-11T03:06:01.983Z,9.27
2018-10-11T03:06:33.185Z,9.28
2018-10-11T03:07:04.370Z,9.28
2018-10-11T03:07:35.491Z,9.29
2018-10-11T03:08:06.601Z,9.32
2018-10-11T03:08:37.891Z,9.32
2018-10-11T03:09:11.908Z,9.33
2018-10-11T03:09:43.825Z,9.33
2018-10-11T03:10:15.331Z,9.32
2018-10-11T03:10:46.474Z,9.33
2018-10-11T03:11:17.633Z,9.34
2018-10-11T03:11:48.821Z,9.33
2018-10-11T03:12:19.963Z,9.30
2018-10-11T03:12:51.106Z,9.32
2018-10-11T03:13:22.253Z,9.32
2018-10-11T03:13:53.357Z,9.31
2018-10-11T03:14:24.465Z,9.32
2018-10-11T03:14:55.593Z,9.33
2018-10-11T03:15:26.780Z,9.33
2018-10-11T03:15:57.930Z,9.36
2018-10-11T03:16:29.082Z,9.37
2018-10-11T03:17:00.189Z,9.39
2018-10-11T03:17:31.290Z,9.41
2018-10-11T03:18:02.447Z,9.42
2018-10-11T03:18:33.655Z,9.44
2018-10-11T03:19:05.664Z,9.44
2018-10-11T03:19:36.894Z,9.45
2018-10-11T03:20:08.334Z,9.45
2018-10-11T03:20:39.592Z,9.47
2018-10-11T03:21:10.796Z,9.50
2018-10-11T03:21:42.164Z,9.49
2018-10-11T03:22:13.297Z,9.50
2018-10-11T03:22:44.525Z,9.52
2018-10-11T03:23:15.649Z,9.53
2018-10-11T03:23:46.778Z,9.54
2018-10-11T03:24:17.924Z,9.54
2018-10-11T03:24:49.138Z,9.55
2018-10-11T03:25:21.113Z,9.54
2018-10-11T03:25:52.310Z,9.55
2018-10-11T03:26:23.582Z,9.57
2018-10-11T03:26:54.690Z,9.57
2018-10-11T03:27:25.842Z,9.56
2018-10-11T03:27:57.078Z,9.57
2018-10-11T03:28:28.921Z,9.57
2018-10-11T03:29:00.047Z,9.57
2018-10-11T03:29:31.193Z,9.58
2018-10-11T03:30:03.157Z,9.58
2018-10-11T03:30:34.263Z,9.61
2018-10-11T03:31:05.413Z,9.60
2018-10-11T03:31:36.577Z,9.61
2018-10-11T03:32:07.711Z,9.62
2018-10-11T03:32:38.937Z,9.62
2018-10-11T03:33:10.094Z,9.61
2018-10-11T03:33:41.224Z,9.63
2018-10-11T03:34:12.476Z,9.64
2018-10-11T03:34:43.913Z,9.65
2018-10-11T03:35:15.968Z,9.68
2018-10-11T03:35:49.422Z,9.67
2018-10-11T03:36:20.635Z,9.67
2018-10-11T03:36:51.783Z,9.68
2018-10-11T03:37:22.918Z,9.67
2018-10-11T03:37:54.131Z,9.67
2018-10-11T03:38:25.259Z,9.67
2018-10-11T03:38:57.054Z,9.67
2018-10-11T03:39:28.240Z,9.65
2018-10-11T03:39:59.370Z,9.66
2018-10-11T03:40:30.610Z,9.66
2018-10-11T03:41:01.755Z,9.66
2018-10-11T03:41:32.882Z,9.67
2018-10-11T03:42:04.070Z,9.68
2018-10-11T03:42:35.255Z,9.69
2018-10-11T03:43:10.661Z,9.68
2018-10-11T03:43:41.867Z,9.68
2018-10-11T03:44:13.042Z,9.68
2018-10-11T03:44:45.028Z,9.67
2018-10-11T03:45:16.176Z,9.68
2018-10-11T03:45:49.032Z,9.69
2018-10-11T03:46:20.383Z,9.69
2018-10-11T03:46:52.449Z,9.69
2018-10-11T03:47:24.797Z,9.68
2018-10-11T03:47:56.100Z,9.69
2018-10-11T03:48:27.359Z,9.70
2018-10-11T03:48:58.595Z,9.70
2018-10-11T03:49:29.713Z,9.70
2018-10-11T03:50:01.850Z,9.72
2018-10-11T03:50:33.050Z,9.73
2018-10-11T03:51:04.332Z,9.73
2018-10-11T03:51:41.826Z,9.72
2018-10-11T03:52:12.985Z,9.72
2018-10-11T03:53:39.024Z,9.69
2018-10-11T03:54:10.245Z,9.67
2018-10-11T03:54:41.542Z,9.66
2018-10-11T03:55:13.572Z,9.67
2018-10-11T03:55:44.878Z,9.65
2018-10-11T03:56:16.289Z,9.66
2018-10-11T03:56:47.616Z,9.67
2018-10-11T03:57:19.267Z,9.68
2018-10-11T03:57:51.341Z,9.71
2018-10-11T03:58:22.535Z,9.72
2018-10-11T03:58:53.725Z,9.73
2018-10-11T03:59:25.040Z,9.73
2018-10-11T03:59:56.207Z,9.72
2018-10-11T04:00:27.404Z,9.73
2018-10-11T04:00:59.189Z,9.74
2018-10-11T04:01:30.365Z,9.74
2018-10-11T04:02:01.634Z,9.75
2018-10-11T04:02:32.815Z,9.74
2018-10-11T04:03:04.608Z,9.74
2018-10-11T04:03:36.578Z,9.75
2018-10-11T04:04:08.557Z,9.75
2018-10-11T04:04:39.907Z,9.74
2018-10-11T04:05:12.114Z,9.73
2018-10-11T04:05:43.311Z,9.73
2018-10-11T04:06:15.553Z,9.72
2018-10-11T04:06:48.076Z,9.70
2018-10-11T04:07:19.823Z,9.70
2018-10-11T04:07:51.280Z,9.69
2018-10-11T04:08:25.383Z,9.68
2018-10-11T04:08:57.171Z,9.68
2018-10-11T04:09:29.247Z,9.69
2018-10-11T04:10:01.173Z,9.69
2018-10-11T04:10:35.719Z,9.69
2018-10-11T04:11:06.980Z,9.69
2018-10-11T04:11:38.860Z,9.69
2018-10-11T04:12:11.815Z,9.69
2018-10-11T04:12:42.974Z,9.69
2018-10-11T04:13:14.376Z,9.69
2018-10-11T04:13:46.260Z,9.71
2018-10-11T04:14:18.652Z,9.71
2018-10-11T04:14:50.196Z,9.72
2018-10-11T04:15:22.334Z,9.72
2018-10-11T04:15:53.576Z,9.75
2018-10-11T04:16:26.656Z,9.75
2018-10-11T04:17:40.139Z,9.76
2018-10-11T04:18:11.399Z,9.76
2018-10-11T04:18:43.803Z,9.77
2018-10-11T04:19:15.039Z,9.79
2018-10-11T04:19:46.988Z,9.79
2018-10-11T04:20:20.226Z,9.79
2018-10-11T04:20:53.478Z,9.79
2018-10-11T04:21:24.607Z,9.79
2018-10-11T04:21:56.372Z,9.79
2018-10-11T04:22:27.485Z,9.79
2018-10-11T04:22:58.792Z,9.78
2018-10-11T04:23:30.408Z,9.79
2018-10-11T04:24:02.233Z,9.78
2018-10-11T04:24:33.412Z,9.79
2018-10-11T04:25:07.238Z,9.80
2018-10-11T04:25:38.420Z,9.79
2018-10-11T04:26:09.660Z,9.81
2018-10-11T04:26:41.633Z,9.80
2018-10-11T04:27:13.504Z,9.82
2018-10-11T04:27:45.165Z,9.83
2018-10-11T04:28:16.424Z,9.85
2018-10-11T04:28:48.338Z,9.87
2018-10-11T04:29:21.382Z,9.87
2018-10-11T04:29:53.352Z,9.87
2018-10-11T04:30:26.244Z,9.89
2018-10-11T04:30:58.735Z,9.90
2018-10-11T04:31:30.980Z,9.90
2018-10-11T04:32:05.127Z,9.87
2018-10-11T04:32:36.343Z,9.87
2018-10-11T04:33:10.154Z,9.87
2018-10-11T04:34:17.120Z,9.85
2018-10-11T04:34:49.335Z,9.84
2018-10-11T04:35:21.248Z,9.84
2018-10-11T04:35:52.552Z,9.86
2018-10-11T04:36:27.016Z,9.87
2018-10-11T04:36:58.292Z,9.87
2018-10-11T04:37:30.502Z,9.89
2018-10-11T04:38:02.360Z,9.89
2018-10-11T04:38:33.606Z,9.87
2018-10-11T04:39:04.837Z,9.88
2018-10-11T04:39:37.330Z,9.87
2018-10-11T04:40:09.403Z,9.87
2018-10-11T04:40:41.695Z,9.89
2018-10-11T04:41:14.770Z,9.89
2018-10-11T04:41:57.907Z,9.91
2018-10-11T04:42:30.293Z,9.92
2018-10-11T04:43:01.665Z,9.94
2018-10-11T04:43:32.892Z,9.94
2018-10-11T04:44:04.185Z,9.94
2018-10-11T04:44:35.849Z,9.96
2018-10-11T04:45:07.151Z,9.97
2018-10-11T04:45:38.325Z,9.98
2018-10-11T04:46:13.138Z,9.99
2018-10-11T04:46:45.033Z,10.01
2018-10-11T04:47:16.180Z,9.99
2018-10-11T04:47:49.523Z,10.00
2018-10-11T04:48:58.147Z,10.06
2018-10-11T04:49:30.502Z,10.07
2018-10-11T04:55:31.774Z,9.11
2018-10-11T04:56:04.756Z,9.97
2018-10-11T04:56:37.315Z,9.98
2018-10-11T04:58:07.118Z,10.03
2018-10-11T04:58:39.149Z,10.07
2018-10-11T04:59:12.252Z,10.10
2018-10-11T04:59:44.428Z,10.15
2018-10-11T05:00:17.449Z,10.19
2018-10-11T05:00:53.173Z,10.23
2018-10-11T05:03:30.940Z,6.72
2018-10-11T05:04:39.713Z,10.69
2018-10-11T05:05:14.127Z,10.76
2018-10-11T05:08:31.853Z,11.04
2018-10-11T05:09:06.288Z,11.04
2018-10-11T05:09:40.023Z,11.05
2018-10-11T05:10:16.655Z,11.09
2018-10-11T05:10:52.947Z,11.11
2018-10-11T05:11:25.146Z,11.11
2018-10-11T05:12:03.383Z,11.11
2018-10-11T05:12:34.747Z,11.12
2018-10-11T05:13:11.246Z,11.12
2018-10-11T05:14:46.061Z,11.12
2018-10-11T05:15:17.351Z,11.13
2018-10-11T05:15:49.212Z,11.12
2018-10-11T05:16:20.559Z,11.13
2018-10-11T05:16:51.877Z,11.14
2018-10-11T05:18:02.160Z,11.20
2018-10-11T05:18:42.319Z,11.20
2018-10-11T05:19:14.518Z,11.23
2018-10-11T05:20:48.402Z,11.26
2018-10-11T05:21:20.231Z,11.25
2018-10-11T05:21:51.377Z,11.22
2018-10-11T05:22:22.632Z,11.22
2018-10-11T05:22:53.905Z,11.23
2018-10-11T05:23:25.169Z,11.25
2018-10-11T05:23:58.531Z,11.29
2018-10-11T05:24:29.839Z,11.31
2018-10-11T05:25:01.176Z,11.32
2018-10-11T05:25:32.602Z,11.33
2018-10-11T05:26:06.840Z,11.37
2018-10-11T05:26:38.183Z,11.41
2018-10-11T05:27:09.349Z,11.46
2018-10-11T05:27:40.553Z,11.51
2018-10-11T05:28:12.367Z,11.55
2018-10-11T05:28:43.747Z,11.60
2018-10-11T05:29:14.937Z,11.63
2018-10-11T05:29:46.077Z,11.66
2018-10-11T05:30:17.338Z,11.67
2018-10-11T05:30:48.683Z,11.70
2018-10-11T05:31:19.838Z,11.71
2018-10-11T05:31:52.159Z,11.72
2018-10-11T05:32:23.427Z,11.76
2018-10-11T05:32:54.502Z,11.77
2018-10-11T05:33:25.735Z,11.81
2018-10-11T05:33:57.929Z,11.83
2018-10-11T05:34:29.082Z,11.85
2018-10-11T05:39:48.831Z,11.62
2018-10-11T05:40:20.034Z,11.61
2018-10-11T05:40:51.258Z,11.59
2018-10-11T05:41:22.407Z,11.55
2018-10-11T05:41:53.561Z,11.54
2018-10-11T05:42:24.746Z,11.55
2018-10-11T05:42:56.012Z,11.53
2018-10-11T05:43:27.244Z,11.49
2018-10-11T05:43:58.453Z,11.51
2018-10-11T05:44:30.161Z,11.52
2018-10-11T05:45:01.460Z,11.55
2018-10-11T05:45:32.660Z,11.57
2018-10-11T05:46:03.941Z,11.58
2018-10-11T05:46:35.177Z,11.60
2018-10-11T05:47:06.389Z,11.61
2018-10-11T05:47:37.842Z,11.61
2018-10-11T05:48:09.052Z,11.64
2018-10-11T05:48:43.366Z,10.79
2018-10-11T05:49:14.599Z,11.69
2018-10-11T05:49:46.876Z,11.72
2018-10-11T05:50:18.092Z,11.72
2018-10-11T05:50:49.362Z,11.73
2018-10-11T05:51:20.511Z,11.74
2018-10-11T05:51:51.680Z,11.76
2018-10-11T05:52:22.797Z,11.83
2018-10-11T05:52:53.979Z,11.87
2018-10-11T05:53:25.185Z,11.93
2018-10-11T05:53:56.336Z,11.97
2018-10-11T05:54:29.656Z,12.00
2018-10-11T05:55:00.940Z,12.03
2018-10-11T05:55:32.425Z,12.06
2018-10-11T05:56:04.267Z,12.09
2018-10-11T05:56:35.530Z,9.07
2018-10-11T05:57:10.227Z,12.14
2018-10-11T05:57:41.443Z,12.18
2018-10-11T05:58:12.604Z,12.17
2018-10-11T05:58:46.380Z,12.17
2018-10-11T05:59:18.562Z,12.21
2018-10-11T06:00:31.265Z,12.24
2018-10-11T06:01:02.448Z,12.22
2018-10-11T06:01:33.643Z,12.18
2018-10-11T06:02:04.996Z,12.11
2018-10-11T06:02:36.182Z,12.03
2018-10-11T06:03:11.387Z,11.95
2018-10-11T06:03:45.884Z,11.89
2018-10-11T06:04:22.284Z,11.83
2018-10-11T06:04:53.490Z,11.79
2018-10-11T06:05:25.708Z,11.80
2018-10-11T06:05:59.203Z,11.76
2018-10-11T06:06:31.210Z,11.71
2018-10-11T06:07:03.574Z,11.68
2018-10-11T06:07:34.824Z,11.69
2018-10-11T06:08:06.109Z,11.74
2018-10-11T06:08:38.192Z,11.76
2018-10-11T06:09:09.489Z,11.80
2018-10-11T06:09:42.693Z,11.82
2018-10-11T06:10:15.118Z,11.81
2018-10-11T06:11:23.795Z,11.70
2018-10-11T06:11:56.124Z,11.69
2018-10-11T06:12:27.394Z,11.69
2018-10-11T06:12:58.648Z,11.68
2018-10-11T06:13:29.851Z,11.70
2018-10-11T06:14:01.134Z,11.71
2018-10-11T06:14:32.344Z,11.71
2018-10-11T06:15:03.562Z,11.61
2018-10-11T06:15:34.805Z,11.70
2018-10-11T06:16:06.222Z,11.65
2018-10-11T06:16:37.517Z,11.59
2018-10-11T06:17:08.806Z,11.52
2018-10-11T06:17:40.211Z,11.49
2018-10-11T06:18:13.724Z,11.43
2018-10-11T06:18:48.118Z,11.38
2018-10-11T06:19:19.261Z,11.36
2018-10-11T06:19:52.589Z,11.35
2018-10-11T06:20:23.709Z,11.33
2018-10-11T06:20:54.847Z,11.34
2018-10-11T06:21:25.996Z,11.33
2018-10-11T06:21:58.763Z,11.34
2018-10-11T06:22:30.027Z,11.30
2018-10-11T06:23:01.191Z,7.60
2018-10-11T06:23:33.040Z,11.28
2018-10-11T06:24:04.188Z,11.27
2018-10-11T06:24:35.451Z,11.28
2018-10-11T06:25:06.683Z,11.31
2018-10-11T06:25:37.871Z,11.35
2018-10-11T06:26:09.042Z,11.44
2018-10-11T06:26:40.232Z,11.46
2018-10-11T06:27:11.385Z,11.53
2018-10-11T06:27:42.670Z,11.61
2018-10-11T06:29:49.959Z,11.68
2018-10-11T06:30:21.836Z,11.67
2018-10-11T06:30:53.083Z,11.71
2018-10-11T06:31:24.262Z,11.78
2018-10-11T06:31:55.447Z,11.89
2018-10-11T06:32:27.546Z,11.95
2018-10-11T06:32:59.982Z,12.02
2018-10-11T06:33:31.997Z,12.06
2018-10-11T06:34:03.218Z,12.12
2018-10-11T06:34:35.085Z,12.18
2018-10-11T06:35:06.352Z,12.21
2018-10-11T06:35:37.509Z,12.29
2018-10-11T06:36:08.727Z,12.22
2018-10-11T06:36:39.965Z,12.45
2018-10-11T06:37:12.699Z,12.50
2018-10-11T06:37:43.841Z,12.56
2018-10-11T06:38:21.112Z,12.62
2018-10-11T06:38:57.207Z,12.61
2018-10-11T06:39:28.516Z,12.66
2018-10-11T06:40:37.626Z,12.62
2018-10-11T06:41:08.753Z,12.63
2018-10-11T06:41:40.020Z,12.55
2018-10-11T06:42:11.169Z,12.53
2018-10-11T06:42:42.368Z,12.56
2018-10-11T06:43:14.125Z,12.64
2018-10-11T06:43:45.332Z,12.68
2018-10-11T06:44:16.834Z,12.72
2018-10-11T06:44:48.023Z,12.77
2018-10-11T06:45:20.015Z,12.81
2018-10-11T06:45:51.169Z,12.86
2018-10-11T06:46:22.543Z,12.85
2018-10-11T06:46:53.703Z,12.84
2018-10-11T06:47:24.983Z,12.80
2018-10-11T06:47:56.257Z,12.72
2018-10-11T06:48:27.442Z,12.68
2018-10-11T06:49:01.094Z,12.64
2018-10-11T06:49:32.301Z,12.62
2018-10-11T06:50:03.645Z,12.61
2018-10-11T06:50:34.653Z,12.59
2018-10-11T06:51:05.854Z,12.58
2018-10-11T06:51:37.103Z,12.56
2018-10-11T06:52:08.359Z,12.58
2018-10-11T06:52:39.548Z,12.60
2018-10-11T06:53:10.742Z,12.67
2018-10-11T06:53:41.932Z,12.73
2018-10-11T06:54:14.231Z,12.84
2018-10-11T06:54:45.717Z,12.90
2018-10-11T06:55:17.007Z,12.96
2018-10-11T06:55:49.276Z,13.06
2018-10-11T06:56:21.553Z,13.11
2018-10-11T06:56:52.801Z,13.23
2018-10-11T06:57:27.597Z,13.31
2018-10-11T06:58:01.167Z,13.38
2018-10-11T06:58:36.197Z,13.48
2018-10-11T06:59:07.682Z,13.48
2018-10-11T07:00:20.615Z,13.49
2018-10-11T07:00:52.939Z,13.47
2018-10-11T07:01:25.953Z,13.50
2018-10-11T07:01:58.839Z,13.51
2018-10-11T07:02:29.958Z,13.53
2018-10-11T07:03:02.184Z,13.59
2018-10-11T07:03:34.167Z,13.67
2018-10-11T07:04:06.482Z,13.73
2018-10-11T07:04:40.604Z,13.78
2018-10-11T07:05:12.596Z,13.85
2018-10-11T07:05:43.956Z,13.88
2018-10-11T07:06:19.853Z,13.89
2018-10-11T07:06:51.136Z,13.94
2018-10-11T07:07:24.093Z,13.96
2018-10-11T07:07:56.312Z,13.95
2018-10-11T07:08:27.657Z,13.95
2018-10-11T07:08:58.849Z,13.87
2018-10-11T07:09:30.596Z,13.89
2018-10-11T07:10:01.807Z,13.89
2018-10-11T07:10:32.973Z,13.90
2018-10-11T07:11:04.290Z,13.92
2018-10-11T07:11:36.159Z,13.87
2018-10-11T07:12:07.430Z,13.84
2018-10-11T07:12:38.571Z,13.79
2018-10-11T07:13:09.965Z,13.57
2018-10-11T07:13:41.213Z,13.65
2018-10-11T07:14:12.480Z,13.55
2018-10-11T07:14:46.353Z,13.44
2018-10-11T07:15:17.657Z,13.39
2018-10-11T07:15:48.835Z,13.36
2018-10-11T07:16:20.991Z,13.36
2018-10-11T07:16:52.223Z,13.40
2018-10-11T07:17:24.339Z,13.43
2018-10-11T07:17:55.643Z,13.41
2018-10-11T07:18:27.739Z,13.41
2018-10-11T07:18:59.002Z,13.39
2018-10-11T07:19:30.330Z,13.41
2018-10-11T07:20:01.609Z,13.42